createdAt,value
2022-11-25T00:04:00.491Z,118.00
2022-11-25T00:14:04.113Z,112.20
2022-11-25T00:24:09.545Z,118.67
2022-11-25T00:34:14.849Z,122.07
2022-11-25T00:44:37.792Z,118.07
2022-11-25T00:54:42.102Z,111.03
2022-11-25T01:04:47.187Z,117.60
2022-11-25T01:14:52.605Z,118.57
2022-11-25T01:24:57.381Z,117.20
2022-11-25T01:35:00.804Z,110.97
2022-11-25T01:45:35.701Z,112.90
2022-11-25T01:55:43.387Z,107.63
2022-11-25T02:05:55.768Z,110.10
2022-11-25T02:15:59.241Z,110.60
2022-11-25T02:26:06.139Z,112.77
2022-11-25T02:36:16.768Z,106.40
2022-11-25T02:46:24.441Z,110.00
2022-11-25T02:56:32.531Z,111.27
2022-11-25T03:06:37.599Z,105.80
2022-11-25T03:16:43.632Z,107.03
2022-11-25T03:26:48.701Z,110.47
2022-11-25T03:36:52.551Z,103.27
2022-11-25T03:46:58.038Z,102.40
2022-11-25T03:57:02.346Z,100.70
2022-11-25T04:07:08.585Z,103.73
2022-11-25T04:17:12.555Z,104.43
2022-11-25T04:27:20.234Z,105.90
2022-11-25T04:37:24.488Z,101.93
2022-11-25T04:47:30.884Z,106.20
2022-11-25T04:57:34.526Z,106.90
2022-11-25T05:07:40.231Z,104.60
2022-11-25T05:17:44.029Z,101.13
2022-11-25T05:27:49.139Z,108.43
2022-11-25T05:37:53.220Z,102.53
2022-11-25T05:47:59.158Z,102.67
2022-11-25T05:58:06.267Z,112.00
2022-11-25T06:08:12.526Z,113.23
2022-11-25T06:18:18.787Z,107.60
2022-11-25T06:28:24.267Z,111.43
2022-11-25T06:38:28.210Z,118.60
2022-11-25T06:48:33.181Z,112.00
2022-11-25T06:58:37.780Z,107.43
2022-11-25T07:08:43.701Z,113.33
2022-11-25T07:18:47.198Z,115.67
2022-11-25T07:28:53.864Z,108.73
2022-11-25T07:38:59.568Z,117.00
2022-11-25T07:49:07.589Z,122.73
2022-11-25T07:59:14.217Z,115.70
2022-11-25T08:09:22.421Z,116.40
2022-11-25T08:19:31.173Z,115.37
2022-11-25T08:29:36.487Z,114.40
2022-11-25T08:39:56.050Z,110.73
2022-11-25T08:50:01.441Z,117.20
2022-11-25T09:00:07.260Z,117.50
2022-11-25T09:10:17.833Z,107.87
2022-11-25T09:20:21.363Z,117.93
2022-11-25T09:30:26.879Z,118.57
2022-11-25T09:40:41.290Z,120.97
2022-11-25T09:50:58.452Z,116.33
2022-11-25T10:01:06.768Z,125.93
2022-11-25T10:11:24.300Z,119.07
2022-11-25T10:21:28.023Z,121.30
2022-11-25T10:31:38.224Z,125.60
2022-11-25T10:41:52.112Z,123.83
2022-11-25T10:51:58.165Z,128.03
2022-11-25T11:02:20.380Z,131.77
2022-11-25T11:12:27.800Z,134.50
2022-11-25T11:22:31.240Z,136.20
2022-11-25T11:32:36.807Z,146.83
2022-11-25T11:42:51.948Z,146.07
2022-11-25T11:53:07.633Z,144.77
2022-11-25T12:03:16.244Z,142.87
2022-11-25T12:13:27.918Z,151.80
2022-11-25T12:23:43.881Z,137.43
2022-11-25T12:33:59.839Z,130.23
2022-11-25T12:44:11.586Z,127.43
2022-11-25T12:54:41.655Z,123.83
2022-11-25T13:05:40.671Z,129.07
2022-11-25T13:15:48.300Z,126.97
2022-11-25T13:25:54.135Z,121.60
2022-11-25T13:35:59.644Z,122.73
2022-11-25T13:46:03.247Z,118.50
2022-11-25T13:56:29.064Z,121.27
2022-11-25T14:07:04.708Z,122.17
2022-11-25T14:17:31.911Z,110.63
2022-11-25T14:27:37.661Z,114.43
2022-11-25T14:37:47.159Z,114.07
2022-11-25T14:47:50.893Z,111.63
2022-11-25T14:57:55.839Z,119.33
2022-11-25T15:08:04.800Z,122.57
2022-11-25T15:18:12.740Z,116.07
2022-11-25T15:28:17.786Z,116.30
2022-11-25T15:38:38.903Z,115.00
2022-11-25T15:48:46.461Z,127.47
2022-11-25T15:58:51.576Z,127.33
2022-11-25T16:08:57.041Z,126.97
2022-11-25T16:19:21.706Z,142.97
2022-11-25T16:29:32.771Z,132.30
2022-11-25T16:39:39.349Z,127.83
2022-11-25T16:49:42.984Z,124.60
2022-11-25T16:59:53.280Z,125.13
2022-11-25T17:09:59.320Z,130.83
2022-11-25T17:20:04.853Z,134.80
2022-11-25T17:30:18.031Z,138.30
2022-11-25T17:40:22.985Z,137.30
2022-11-25T17:50:28.029Z,140.10
2022-11-25T18:00:35.724Z,136.50
2022-11-25T18:10:40.355Z,120.43
2022-11-25T18:20:45.191Z,134.53
2022-11-25T18:30:50.177Z,117.50
2022-11-25T18:40:55.301Z,130.83
2022-11-25T18:50:58.857Z,122.77
2022-11-25T19:01:14.052Z,125.07
2022-11-25T19:11:29.834Z,127.10
2022-11-25T19:21:34.871Z,125.77
2022-11-25T19:31:39.706Z,146.50
2022-11-25T19:41:44.578Z,127.30
2022-11-25T19:51:48.873Z,125.27
2022-11-25T20:01:53.787Z,130.70
2022-11-25T20:12:08.060Z,137.43
2022-11-25T20:22:19.812Z,137.13
2022-11-25T20:32:29.028Z,139.67
2022-11-25T20:42:33.911Z,142.03
2022-11-25T20:52:38.862Z,138.40
2022-11-25T21:02:43.722Z,140.93
2022-11-25T21:12:49.241Z,136.80
2022-11-25T21:22:58.974Z,138.40
2022-11-25T21:33:04.514Z,131.70
2022-11-25T21:43:21.530Z,130.67
2022-11-25T21:53:25.517Z,135.53
2022-11-25T22:03:32.491Z,134.27
2022-11-25T22:13:39.687Z,127.47
2022-11-25T22:23:44.631Z,121.43
2022-11-25T22:33:48.608Z,118.70
2022-11-25T22:43:54.101Z,114.10
2022-11-25T22:53:57.620Z,115.13
2022-11-25T23:04:03.076Z,117.73
2022-11-25T23:14:06.577Z,126.13
2022-11-25T23:24:15.446Z,125.67
2022-11-25T23:34:18.935Z,130.03
2022-11-25T23:44:27.179Z,132.23
2022-11-25T23:54:40.403Z,132.23
